sensor_id;sensor_type;location;lat;lon;timestamp;pressure;altitude;pressure_sealevel;temperature;humidity
65872;BME280;52653;50.080;21.992;2022-10-16T00:02:20;99517.88;;;12.07;80.69
65872;BME280;52653;50.080;21.992;2022-10-16T00:04:51;99516.13;;;12.04;80.74
65872;BME280;52653;50.080;21.992;2022-10-16T00:07:25;99520.41;;;11.98;80.62
65872;BME280;52653;50.080;21.992;2022-10-16T00:09:57;99515.54;;;11.92;80.86
65872;BME280;52653;50.080;21.992;2022-10-16T00:12:29;99515.58;;;11.87;81.26
65872;BME280;52653;50.080;21.992;2022-10-16T00:15:00;99511.05;;;11.84;81.18
65872;BME280;52653;50.080;21.992;2022-10-16T00:17:32;99511.92;;;11.83;81.23
65872;BME280;52653;50.080;21.992;2022-10-16T00:20:05;99514.58;;;11.83;81.31
65872;BME280;52653;50.080;21.992;2022-10-16T00:22:37;99517.20;;;11.83;81.36
65872;BME280;52653;50.080;21.992;2022-10-16T00:25:09;99516.14;;;11.85;81.40
65872;BME280;52653;50.080;21.992;2022-10-16T00:27:42;99520.86;;;11.87;81.48
65872;BME280;52653;50.080;21.992;2022-10-16T00:30:14;99523.29;;;11.89;81.42
65872;BME280;52653;50.080;21.992;2022-10-16T00:32:46;99523.97;;;11.91;81.60
65872;BME280;52653;50.080;21.992;2022-10-16T00:35:17;99531.54;;;11.91;81.60
65872;BME280;52653;50.080;21.992;2022-10-16T00:37:49;99535.23;;;11.90;81.60
65872;BME280;52653;50.080;21.992;2022-10-16T00:40:21;99536.15;;;11.86;81.73
65872;BME280;52653;50.080;21.992;2022-10-16T00:42:53;99539.69;;;11.84;81.85
65872;BME280;52653;50.080;21.992;2022-10-16T00:45:25;99537.41;;;11.84;81.80
65872;BME280;52653;50.080;21.992;2022-10-16T00:47:57;99538.96;;;11.86;82.09
65872;BME280;52653;50.080;21.992;2022-10-16T00:50:31;99544.94;;;11.87;82.21
65872;BME280;52653;50.080;21.992;2022-10-16T00:53:04;99547.70;;;11.91;82.18
65872;BME280;52653;50.080;21.992;2022-10-16T00:55:37;99549.77;;;11.97;82.09
65872;BME280;52653;50.080;21.992;2022-10-16T00:58:12;99553.77;;;12.03;82.12
65872;BME280;52653;50.080;21.992;2022-10-16T01:00:44;99555.48;;;12.09;82.08
65872;BME280;52653;50.080;21.992;2022-10-16T01:03:27;99554.73;;;12.14;81.93
65872;BME280;52653;50.080;21.992;2022-10-16T01:06:09;99559.26;;;12.18;81.74
65872;BME280;52653;50.080;21.992;2022-10-16T01:09:04;99559.78;;;12.19;81.70
65872;BME280;52653;50.080;21.992;2022-10-16T01:11:45;99558.91;;;12.18;81.50
65872;BME280;52653;50.080;21.992;2022-10-16T01:14:24;99559.83;;;12.14;81.38
65872;BME280;52653;50.080;21.992;2022-10-16T01:17:00;99556.89;;;12.10;81.18
65872;BME280;52653;50.080;21.992;2022-10-16T01:19:44;99560.59;;;12.05;81.26
65872;BME280;52653;50.080;21.992;2022-10-16T01:22:25;99563.63;;;12.02;81.31
65872;BME280;52653;50.080;21.992;2022-10-16T01:25:08;99562.94;;;12.00;81.23
65872;BME280;52653;50.080;21.992;2022-10-16T01:27:43;99560.50;;;11.97;81.42
65872;BME280;52653;50.080;21.992;2022-10-16T01:30:21;99564.04;;;11.95;81.69
65872;BME280;52653;50.080;21.992;2022-10-16T01:32:58;99561.21;;;11.93;81.51
65872;BME280;52653;50.080;21.992;2022-10-16T01:35:35;99561.58;;;11.93;81.44
65872;BME280;52653;50.080;21.992;2022-10-16T01:38:10;99562.27;;;11.94;81.61
65872;BME280;52653;50.080;21.992;2022-10-16T01:40:46;99566.32;;;11.96;81.48
65872;BME280;52653;50.080;21.992;2022-10-16T01:43:22;99568.77;;;11.94;81.47
65872;BME280;52653;50.080;21.992;2022-10-16T01:45:56;99569.33;;;11.91;81.57
65872;BME280;52653;50.080;21.992;2022-10-16T01:48:30;99570.07;;;11.86;81.69
65872;BME280;52653;50.080;21.992;2022-10-16T01:51:07;99570.28;;;11.82;81.74
65872;BME280;52653;50.080;21.992;2022-10-16T01:53:41;99567.64;;;11.80;81.78
65872;BME280;52653;50.080;21.992;2022-10-16T01:56:16;99568.52;;;11.79;81.85
65872;BME280;52653;50.080;21.992;2022-10-16T01:58:53;99569.05;;;11.81;81.80
65872;BME280;52653;50.080;21.992;2022-10-16T02:01:28;99570.98;;;11.84;81.80
65872;BME280;52653;50.080;21.992;2022-10-16T02:04:07;99570.95;;;11.86;81.85
65872;BME280;52653;50.080;21.992;2022-10-16T02:06:41;99574.42;;;11.91;81.86
65872;BME280;52653;50.080;21.992;2022-10-16T02:09:13;99570.19;;;11.94;81.87
65872;BME280;52653;50.080;21.992;2022-10-16T02:11:47;99571.73;;;11.99;81.70
65872;BME280;52653;50.080;21.992;2022-10-16T02:14:20;99573.45;;;12.03;81.58
65872;BME280;52653;50.080;21.992;2022-10-16T02:16:55;99577.65;;;12.06;81.44
65872;BME280;52653;50.080;21.992;2022-10-16T02:19:26;99583.28;;;12.06;81.35
65872;BME280;52653;50.080;21.992;2022-10-16T02:22:01;99584.16;;;12.05;81.36
65872;BME280;52653;50.080;21.992;2022-10-16T02:24:42;99586.48;;;12.01;81.13
65872;BME280;52653;50.080;21.992;2022-10-16T02:27:19;99585.80;;;12.00;81.07
65872;BME280;52653;50.080;21.992;2022-10-16T02:29:55;99583.54;;;11.97;80.93
65872;BME280;52653;50.080;21.992;2022-10-16T02:32:31;99585.30;;;11.96;80.98
65872;BME280;52653;50.080;21.992;2022-10-16T02:35:05;99589.68;;;11.97;80.97
65872;BME280;52653;50.080;21.992;2022-10-16T02:37:39;99592.67;;;11.97;80.91
65872;BME280;52653;50.080;21.992;2022-10-16T02:40:13;99595.16;;;11.95;80.92
65872;BME280;52653;50.080;21.992;2022-10-16T02:42:51;99598.31;;;11.95;80.81
65872;BME280;52653;50.080;21.992;2022-10-16T02:45:24;99598.14;;;11.94;81.02
65872;BME280;52653;50.080;21.992;2022-10-16T02:47:56;99597.61;;;11.93;81.07
65872;BME280;52653;50.080;21.992;2022-10-16T02:50:28;99590.08;;;11.90;80.98
65872;BME280;52653;50.080;21.992;2022-10-16T02:53:00;99591.33;;;11.88;81.15
65872;BME280;52653;50.080;21.992;2022-10-16T02:55:32;99589.25;;;11.85;81.00
65872;BME280;52653;50.080;21.992;2022-10-16T02:58:03;99586.96;;;11.85;81.12
65872;BME280;52653;50.080;21.992;2022-10-16T03:00:35;99587.65;;;11.86;81.23
65872;BME280;52653;50.080;21.992;2022-10-16T03:03:07;99585.35;;;11.88;81.20
65872;BME280;52653;50.080;21.992;2022-10-16T03:05:39;99587.25;;;11.91;81.15
65872;BME280;52653;50.080;21.992;2022-10-16T03:08:11;99589.88;;;11.93;81.17
65872;BME280;52653;50.080;21.992;2022-10-16T03:10:43;99587.93;;;11.97;81.15
65872;BME280;52653;50.080;21.992;2022-10-16T03:13:14;99589.98;;;12.02;81.24
65872;BME280;52653;50.080;21.992;2022-10-16T03:15:46;99593.65;;;12.06;80.93
65872;BME280;52653;50.080;21.992;2022-10-16T03:18:18;99595.58;;;12.09;81.05
65872;BME280;52653;50.080;21.992;2022-10-16T03:20:50;99597.83;;;12.12;80.88
65872;BME280;52653;50.080;21.992;2022-10-16T03:23:22;99596.77;;;12.12;80.90
65872;BME280;52653;50.080;21.992;2022-10-16T03:25:54;99600.98;;;12.13;80.82
65872;BME280;52653;50.080;21.992;2022-10-16T03:28:26;99603.25;;;12.16;80.91
65872;BME280;52653;50.080;21.992;2022-10-16T03:30:58;99602.87;;;12.21;80.83
65872;BME280;52653;50.080;21.992;2022-10-16T03:33:29;99609.14;;;12.26;80.88
65872;BME280;52653;50.080;21.992;2022-10-16T03:36:01;99606.45;;;12.32;80.84
65872;BME280;52653;50.080;21.992;2022-10-16T03:38:33;99607.65;;;12.37;80.33
65872;BME280;52653;50.080;21.992;2022-10-16T03:41:05;99603.91;;;12.44;80.43
65872;BME280;52653;50.080;21.992;2022-10-16T03:43:38;99602.10;;;12.48;80.26
65872;BME280;52653;50.080;21.992;2022-10-16T03:46:09;99599.42;;;12.52;80.19
65872;BME280;52653;50.080;21.992;2022-10-16T03:48:41;99601.17;;;12.53;79.95
65872;BME280;52653;50.080;21.992;2022-10-16T03:51:13;99605.92;;;12.53;79.83
65872;BME280;52653;50.080;21.992;2022-10-16T03:53:45;99604.86;;;12.53;79.82
65872;BME280;52653;50.080;21.992;2022-10-16T03:56:16;99600.27;;;12.54;79.74
65872;BME280;52653;50.080;21.992;2022-10-16T03:58:48;99606.59;;;12.56;79.73
65872;BME280;52653;50.080;21.992;2022-10-16T04:01:20;99609.38;;;12.61;79.73
65872;BME280;52653;50.080;21.992;2022-10-16T04:03:51;99612.31;;;12.65;79.46
65872;BME280;52653;50.080;21.992;2022-10-16T04:06:23;99612.63;;;12.70;79.45
65872;BME280;52653;50.080;21.992;2022-10-16T04:08:55;99616.80;;;12.75;79.30
65872;BME280;52653;50.080;21.992;2022-10-16T04:11:27;99619.41;;;12.78;79.15
65872;BME280;52653;50.080;21.992;2022-10-16T04:13:59;99619.39;;;12.80;79.01
65872;BME280;52653;50.080;21.992;2022-10-16T04:16:31;99624.64;;;12.82;79.01
65872;BME280;52653;50.080;21.992;2022-10-16T04:19:02;99625.35;;;12.81;78.83
65872;BME280;52653;50.080;21.992;2022-10-16T04:21:34;99623.77;;;12.81;78.77
65872;BME280;52653;50.080;21.992;2022-10-16T04:24:06;99623.94;;;12.84;78.75
65872;BME280;52653;50.080;21.992;2022-10-16T04:26:38;99627.77;;;12.87;78.45
65872;BME280;52653;50.080;21.992;2022-10-16T04:29:09;99630.01;;;12.91;78.19
65872;BME280;52653;50.080;21.992;2022-10-16T04:31:42;99627.33;;;12.95;78.21
65872;BME280;52653;50.080;21.992;2022-10-16T04:34:13;99628.00;;;12.99;78.09
65872;BME280;52653;50.080;21.992;2022-10-16T04:36:46;99628.69;;;13.00;77.86
65872;BME280;52653;50.080;21.992;2022-10-16T04:39:18;99631.33;;;13.01;77.73
65872;BME280;52653;50.080;21.992;2022-10-16T04:41:49;99630.27;;;13.00;77.71
65872;BME280;52653;50.080;21.992;2022-10-16T04:44:21;99630.82;;;13.00;77.80
65872;BME280;52653;50.080;21.992;2022-10-16T04:46:53;99634.16;;;13.00;77.76
65872;BME280;52653;50.080;21.992;2022-10-16T04:49:25;99637.30;;;13.01;77.74
65872;BME280;52653;50.080;21.992;2022-10-16T04:51:56;99639.73;;;13.04;77.66
65872;BME280;52653;50.080;21.992;2022-10-16T04:54:28;99641.81;;;13.07;77.43
65872;BME280;52653;50.080;21.992;2022-10-16T04:57:00;99645.13;;;13.11;77.40
65872;BME280;52653;50.080;21.992;2022-10-16T04:59:32;99649.81;;;13.18;77.34
65872;BME280;52653;50.080;21.992;2022-10-16T05:02:03;99654.91;;;13.22;77.12
65872;BME280;52653;50.080;21.992;2022-10-16T05:04:36;99662.47;;;13.23;76.97
65872;BME280;52653;50.080;21.992;2022-10-16T05:07:07;99662.27;;;13.24;77.04
65872;BME280;52653;50.080;21.992;2022-10-16T05:09:39;99668.80;;;13.24;77.02
65872;BME280;52653;50.080;21.992;2022-10-16T05:12:11;99667.38;;;13.24;76.90
65872;BME280;52653;50.080;21.992;2022-10-16T05:14:43;99669.11;;;13.27;76.78
65872;BME280;52653;50.080;21.992;2022-10-16T05:17:14;99668.55;;;13.30;76.64
65872;BME280;52653;50.080;21.992;2022-10-16T05:19:46;99665.50;;;13.35;76.61
65872;BME280;52653;50.080;21.992;2022-10-16T05:22:18;99665.42;;;13.41;76.60
65872;BME280;52653;50.080;21.992;2022-10-16T05:24:49;99664.13;;;13.47;76.32
65872;BME280;52653;50.080;21.992;2022-10-16T05:27:21;99663.41;;;13.48;76.11
65872;BME280;52653;50.080;21.992;2022-10-16T05:29:54;99665.30;;;13.51;75.98
65872;BME280;52653;50.080;21.992;2022-10-16T05:32:25;99666.69;;;13.52;75.88
65872;BME280;52653;50.080;21.992;2022-10-16T05:34:57;99666.49;;;13.54;75.90
65872;BME280;52653;50.080;21.992;2022-10-16T05:37:31;99672.44;;;13.58;75.96
65872;BME280;52653;50.080;21.992;2022-10-16T05:40:03;99680.52;;;13.62;75.95
65872;BME280;52653;50.080;21.992;2022-10-16T05:42:35;99676.55;;;13.67;75.79
65872;BME280;52653;50.080;21.992;2022-10-16T05:45:10;99678.27;;;13.72;75.38
65872;BME280;52653;50.080;21.992;2022-10-16T05:47:42;99680.09;;;13.80;75.18
65872;BME280;52653;50.080;21.992;2022-10-16T05:50:14;99681.91;;;13.90;75.07
65872;BME280;52653;50.080;21.992;2022-10-16T05:52:45;99686.01;;;14.00;74.93
65872;BME280;52653;50.080;21.992;2022-10-16T05:55:17;99689.08;;;14.06;74.39
65872;BME280;52653;50.080;21.992;2022-10-16T05:57:49;99691.96;;;14.14;74.49
65872;BME280;52653;50.080;21.992;2022-10-16T06:00:21;99694.31;;;14.22;73.94
65872;BME280;52653;50.080;21.992;2022-10-16T06:02:53;99698.17;;;14.25;73.63
65872;BME280;52653;50.080;21.992;2022-10-16T06:05:27;99699.91;;;14.27;73.44
65872;BME280;52653;50.080;21.992;2022-10-16T06:07:59;99700.95;;;14.28;73.56
65872;BME280;52653;50.080;21.992;2022-10-16T06:10:31;99707.08;;;14.30;73.51
65872;BME280;52653;50.080;21.992;2022-10-16T06:13:03;99705.08;;;14.34;73.34
65872;BME280;52653;50.080;21.992;2022-10-16T06:15:34;99708.54;;;14.39;73.30
65872;BME280;52653;50.080;21.992;2022-10-16T06:18:06;99710.91;;;14.47;72.69
65872;BME280;52653;50.080;21.992;2022-10-16T06:20:39;99714.63;;;14.58;72.71
65872;BME280;52653;50.080;21.992;2022-10-16T06:23:11;99715.58;;;14.66;72.34
65872;BME280;52653;50.080;21.992;2022-10-16T06:25:43;99714.95;;;14.70;72.17
65872;BME280;52653;50.080;21.992;2022-10-16T06:28:16;99721.77;;;14.76;72.06
65872;BME280;52653;50.080;21.992;2022-10-16T06:30:48;99723.80;;;14.81;71.87
65872;BME280;52653;50.080;21.992;2022-10-16T06:33:20;99726.37;;;14.85;71.48
65872;BME280;52653;50.080;21.992;2022-10-16T06:35:52;99726.48;;;14.90;71.33
65872;BME280;52653;50.080;21.992;2022-10-16T06:38:24;99732.71;;;14.96;71.17
65872;BME280;52653;50.080;21.992;2022-10-16T06:40:56;99732.13;;;15.01;70.82
65872;BME280;52653;50.080;21.992;2022-10-16T06:43:29;99735.54;;;15.07;70.86
65872;BME280;52653;50.080;21.992;2022-10-16T06:46:04;99741.60;;;15.14;70.59
65872;BME280;52653;50.080;21.992;2022-10-16T06:48:37;99743.04;;;15.22;70.00
65872;BME280;52653;50.080;21.992;2022-10-16T06:51:11;99743.22;;;15.32;69.52
65872;BME280;52653;50.080;21.992;2022-10-16T06:53:45;99749.73;;;15.44;69.56
65872;BME280;52653;50.080;21.992;2022-10-16T06:56:33;99754.42;;;15.57;69.23
65872;BME280;52653;50.080;21.992;2022-10-16T06:59:05;99750.75;;;15.66;68.52
65872;BME280;52653;50.080;21.992;2022-10-16T07:01:37;99755.05;;;15.71;68.13
65872;BME280;52653;50.080;21.992;2022-10-16T07:04:09;99757.19;;;15.80;68.17
65872;BME280;52653;50.080;21.992;2022-10-16T07:06:41;99757.92;;;15.86;67.49
65872;BME280;52653;50.080;21.992;2022-10-16T07:09:14;99757.85;;;15.91;67.05
65872;BME280;52653;50.080;21.992;2022-10-16T07:11:46;99761.91;;;16.00;67.30
65872;BME280;52653;50.080;21.992;2022-10-16T07:14:20;99764.16;;;16.10;66.97
65872;BME280;52653;50.080;21.992;2022-10-16T07:16:52;99766.13;;;16.18;66.31
65872;BME280;52653;50.080;21.992;2022-10-16T07:19:25;99766.49;;;16.26;65.64
65872;BME280;52653;50.080;21.992;2022-10-16T07:22:01;99770.51;;;16.36;65.93
65872;BME280;52653;50.080;21.992;2022-10-16T07:24:36;99768.45;;;16.49;65.59
65872;BME280;52653;50.080;21.992;2022-10-16T07:27:07;99766.09;;;16.59;65.49
65872;BME280;52653;50.080;21.992;2022-10-16T07:29:39;99770.40;;;16.73;65.50
65872;BME280;52653;50.080;21.992;2022-10-16T07:32:12;99770.23;;;16.87;65.10
65872;BME280;52653;50.080;21.992;2022-10-16T07:34:47;99772.33;;;16.95;64.24
65872;BME280;52653;50.080;21.992;2022-10-16T07:37:19;99777.61;;;17.04;63.77
65872;BME280;52653;50.080;21.992;2022-10-16T07:39:50;99776.71;;;17.12;63.38
65872;BME280;52653;50.080;21.992;2022-10-16T07:42:22;99780.10;;;17.18;63.42
65872;BME280;52653;50.080;21.992;2022-10-16T07:44:54;99778.45;;;17.20;63.24
65872;BME280;52653;50.080;21.992;2022-10-16T07:47:26;99786.13;;;17.19;62.24
65872;BME280;52653;50.080;21.992;2022-10-16T07:49:59;99788.30;;;17.17;62.48
65872;BME280;52653;50.080;21.992;2022-10-16T07:52:31;99791.16;;;17.16;62.29
65872;BME280;52653;50.080;21.992;2022-10-16T07:55:03;99792.36;;;17.17;62.20
65872;BME280;52653;50.080;21.992;2022-10-16T07:57:35;99789.41;;;17.21;62.76
65872;BME280;52653;50.080;21.992;2022-10-16T08:00:10;99785.73;;;17.26;61.92
65872;BME280;52653;50.080;21.992;2022-10-16T08:02:44;99786.64;;;17.33;61.99
65872;BME280;52653;50.080;21.992;2022-10-16T08:05:15;99785.76;;;17.39;61.59
65872;BME280;52653;50.080;21.992;2022-10-16T08:07:51;99784.48;;;17.47;61.72
65872;BME280;52653;50.080;21.992;2022-10-16T08:10:25;99784.36;;;17.58;61.66
65872;BME280;52653;50.080;21.992;2022-10-16T08:12:57;99788.46;;;17.72;61.65
65872;BME280;52653;50.080;21.992;2022-10-16T08:15:30;99791.09;;;17.80;60.33
65872;BME280;52653;50.080;21.992;2022-10-16T08:18:03;99793.80;;;17.84;60.22
65872;BME280;52653;50.080;21.992;2022-10-16T08:20:36;99794.46;;;17.92;60.20
65872;BME280;52653;50.080;21.992;2022-10-16T08:23:08;99787.90;;;17.92;59.30
65872;BME280;52653;50.080;21.992;2022-10-16T08:25:42;99790.88;;;18.00;59.84
65872;BME280;52653;50.080;21.992;2022-10-16T08:28:13;99797.86;;;18.16;59.40
65872;BME280;52653;50.080;21.992;2022-10-16T08:30:46;99794.95;;;18.31;58.59
65872;BME280;52653;50.080;21.992;2022-10-16T08:33:18;99795.71;;;18.40;58.25
65872;BME280;52653;50.080;21.992;2022-10-16T08:35:53;99797.39;;;18.44;58.12
65872;BME280;52653;50.080;21.992;2022-10-16T08:38:26;99796.79;;;18.52;58.63
65872;BME280;52653;50.080;21.992;2022-10-16T08:41:17;99796.14;;;18.62;58.66
65872;BME280;52653;50.080;21.992;2022-10-16T08:44:10;99797.50;;;18.76;58.96
65872;BME280;52653;50.080;21.992;2022-10-16T08:46:53;99795.66;;;18.94;58.41
65872;BME280;52653;50.080;21.992;2022-10-16T08:49:31;99792.64;;;19.05;57.77
65872;BME280;52653;50.080;21.992;2022-10-16T08:52:03;99794.41;;;19.16;57.63
65872;BME280;52653;50.080;21.992;2022-10-16T08:54:37;99792.65;;;19.21;56.26
65872;BME280;52653;50.080;21.992;2022-10-16T08:57:16;99790.73;;;19.20;55.52
65872;BME280;52653;50.080;21.992;2022-10-16T08:59:57;99791.65;;;19.29;56.64
65872;BME280;52653;50.080;21.992;2022-10-16T09:02:34;99796.33;;;19.43;56.75
65872;BME280;52653;50.080;21.992;2022-10-16T09:05:28;99802.02;;;19.60;55.66
65872;BME280;52653;50.080;21.992;2022-10-16T09:08:09;99803.27;;;19.70;54.04
65872;BME280;52653;50.080;21.992;2022-10-16T09:10:52;99807.53;;;19.80;53.77
65872;BME280;52653;50.080;21.992;2022-10-16T09:13:31;99807.21;;;19.88;53.46
65872;BME280;52653;50.080;21.992;2022-10-16T09:16:16;99806.83;;;19.95;53.21
65872;BME280;52653;50.080;21.992;2022-10-16T09:18:54;99811.27;;;19.95;52.74
65872;BME280;52653;50.080;21.992;2022-10-16T09:21:31;99816.92;;;19.96;52.80
65872;BME280;52653;50.080;21.992;2022-10-16T09:24:11;99816.92;;;20.01;52.69
65872;BME280;52653;50.080;21.992;2022-10-16T09:26:45;99827.77;;;20.06;52.88
65872;BME280;52653;50.080;21.992;2022-10-16T09:29:19;99832.58;;;20.11;52.84
65872;BME280;52653;50.080;21.992;2022-10-16T09:31:53;99830.63;;;20.20;53.07
65872;BME280;52653;50.080;21.992;2022-10-16T09:34:31;99831.05;;;20.28;52.31
65872;BME280;52653;50.080;21.992;2022-10-16T09:37:09;99833.47;;;20.35;51.85
65872;BME280;52653;50.080;21.992;2022-10-16T09:39:50;99834.11;;;20.37;51.63
65872;BME280;52653;50.080;21.992;2022-10-16T09:42:26;99829.60;;;20.38;51.92
65872;BME280;52653;50.080;21.992;2022-10-16T09:44:59;99831.40;;;20.38;51.70
65872;BME280;52653;50.080;21.992;2022-10-16T09:47:32;99834.76;;;20.34;51.28
65872;BME280;52653;50.080;21.992;2022-10-16T09:50:26;99830.35;;;20.27;51.38
65872;BME280;52653;50.080;21.992;2022-10-16T09:53:12;99836.45;;;20.26;51.62
65872;BME280;52653;50.080;21.992;2022-10-16T09:55:52;99836.93;;;20.28;52.13
65872;BME280;52653;50.080;21.992;2022-10-16T09:58:25;99837.60;;;20.29;52.02
65872;BME280;52653;50.080;21.992;2022-10-16T10:00:56;99838.77;;;20.27;51.39
65872;BME280;52653;50.080;21.992;2022-10-16T10:03:40;99838.33;;;20.24;51.91
65872;BME280;52653;50.080;21.992;2022-10-16T10:06:23;99840.76;;;20.26;52.02
65872;BME280;52653;50.080;21.992;2022-10-16T10:08:58;99838.49;;;20.29;52.34
65872;BME280;52653;50.080;21.992;2022-10-16T10:11:42;99843.98;;;20.35;51.75
65872;BME280;52653;50.080;21.992;2022-10-16T10:14:27;99842.17;;;20.36;51.84
65872;BME280;52653;50.080;21.992;2022-10-16T10:17:13;99843.83;;;20.39;51.85
65872;BME280;52653;50.080;21.992;2022-10-16T10:19:49;99848.02;;;20.42;51.55
65872;BME280;52653;50.080;21.992;2022-10-16T10:22:25;99848.55;;;20.41;51.47
65872;BME280;52653;50.080;21.992;2022-10-16T10:25:26;99848.77;;;20.40;51.76
65872;BME280;52653;50.080;21.992;2022-10-16T10:28:14;99847.41;;;20.49;52.23
65872;BME280;52653;50.080;21.992;2022-10-16T10:30:58;99843.27;;;20.54;51.85
65872;BME280;52653;50.080;21.992;2022-10-16T10:33:40;99841.37;;;20.62;52.12
65872;BME280;52653;50.080;21.992;2022-10-16T10:36:29;99839.05;;;20.72;52.04
65872;BME280;52653;50.080;21.992;2022-10-16T10:39:07;99839.23;;;20.71;50.99
65872;BME280;52653;50.080;21.992;2022-10-16T10:42:02;99835.77;;;20.64;50.69
65872;BME280;52653;50.080;21.992;2022-10-16T10:44:53;99833.91;;;20.62;50.98
65872;BME280;52653;50.080;21.992;2022-10-16T10:47:38;99829.59;;;20.63;51.13
65872;BME280;52653;50.080;21.992;2022-10-16T10:50:20;99828.27;;;20.68;50.91
65872;BME280;52653;50.080;21.992;2022-10-16T10:53:00;99831.19;;;20.72;50.88
65872;BME280;52653;50.080;21.992;2022-10-16T10:55:43;99827.91;;;20.74;50.90
65872;BME280;52653;50.080;21.992;2022-10-16T10:58:42;99826.49;;;20.78;51.55
65872;BME280;52653;50.080;21.992;2022-10-16T11:01:18;99823.64;;;20.87;50.97
65872;BME280;52653;50.080;21.992;2022-10-16T11:04:03;99817.44;;;20.95;50.95
65872;BME280;52653;50.080;21.992;2022-10-16T11:06:42;99812.79;;;21.04;51.39
65872;BME280;52653;50.080;21.992;2022-10-16T11:09:18;99810.60;;;21.13;51.63
65872;BME280;52653;50.080;21.992;2022-10-16T11:11:54;99814.44;;;21.25;51.21
65872;BME280;52653;50.080;21.992;2022-10-16T11:14:31;99815.75;;;21.32;50.62
65872;BME280;52653;50.080;21.992;2022-10-16T11:17:10;99809.84;;;21.37;49.91
65872;BME280;52653;50.080;21.992;2022-10-16T11:19:44;99800.23;;;21.36;49.60
65872;BME280;52653;50.080;21.992;2022-10-16T11:22:22;99808.48;;;21.35;49.56
65872;BME280;52653;50.080;21.992;2022-10-16T11:25:01;99809.06;;;21.34;49.47
65872;BME280;52653;50.080;21.992;2022-10-16T11:27:39;99812.39;;;21.27;49.14
65872;BME280;52653;50.080;21.992;2022-10-16T11:30:20;99818.46;;;21.23;49.13
65872;BME280;52653;50.080;21.992;2022-10-16T11:33:02;99818.05;;;21.24;49.79
65872;BME280;52653;50.080;21.992;2022-10-16T11:35:41;99822.79;;;21.26;48.70
65872;BME280;52653;50.080;21.992;2022-10-16T11:38:20;99824.39;;;21.21;48.58
65872;BME280;52653;50.080;21.992;2022-10-16T11:40:56;99820.50;;;21.16;48.59
65872;BME280;52653;50.080;21.992;2022-10-16T11:43:34;99824.54;;;21.17;49.29
65872;BME280;52653;50.080;21.992;2022-10-16T11:46:15;99820.50;;;21.20;48.94
65872;BME280;52653;50.080;21.992;2022-10-16T11:48:51;99819.67;;;21.18;48.72
65872;BME280;52653;50.080;21.992;2022-10-16T11:51:29;99815.73;;;21.19;49.26
65872;BME280;52653;50.080;21.992;2022-10-16T11:54:08;99818.34;;;21.16;48.64
65872;BME280;52653;50.080;21.992;2022-10-16T11:56:49;99816.20;;;21.16;49.20
65872;BME280;52653;50.080;21.992;2022-10-16T11:59:27;99816.48;;;21.23;49.63
65872;BME280;52653;50.080;21.992;2022-10-16T12:02:20;99810.69;;;21.29;49.00
65872;BME280;52653;50.080;21.992;2022-10-16T12:05:11;99808.67;;;21.30;48.38
65872;BME280;52653;50.080;21.992;2022-10-16T12:07:49;99802.11;;;21.21;48.06
65872;BME280;52653;50.080;21.992;2022-10-16T12:10:26;99799.55;;;21.09;48.18
65872;BME280;52653;50.080;21.992;2022-10-16T12:12:59;99804.58;;;21.04;48.36
65872;BME280;52653;50.080;21.992;2022-10-16T12:15:32;99804.27;;;21.03;48.55
65872;BME280;52653;50.080;21.992;2022-10-16T12:18:26;99800.34;;;21.07;48.62
65872;BME280;52653;50.080;21.992;2022-10-16T12:20:58;99801.74;;;21.16;49.21
65872;BME280;52653;50.080;21.992;2022-10-16T12:23:36;99806.75;;;21.25;48.96
65872;BME280;52653;50.080;21.992;2022-10-16T12:26:08;99806.77;;;21.29;48.72
65872;BME280;52653;50.080;21.992;2022-10-16T12:28:42;99806.80;;;21.28;48.41
65872;BME280;52653;50.080;21.992;2022-10-16T12:31:17;99803.34;;;21.26;48.19
65872;BME280;52653;50.080;21.992;2022-10-16T12:33:59;99797.70;;;21.24;48.78
65872;BME280;52653;50.080;21.992;2022-10-16T12:36:33;99801.56;;;21.26;48.30
65872;BME280;52653;50.080;21.992;2022-10-16T12:39:16;99800.67;;;21.16;48.17
65872;BME280;52653;50.080;21.992;2022-10-16T12:42:01;99798.54;;;21.12;48.64
65872;BME280;52653;50.080;21.992;2022-10-16T12:44:37;99801.30;;;21.10;48.82
65872;BME280;52653;50.080;21.992;2022-10-16T12:47:22;99799.50;;;21.14;49.46
65872;BME280;52653;50.080;21.992;2022-10-16T12:49:55;99798.62;;;21.23;49.14
65872;BME280;52653;50.080;21.992;2022-10-16T12:52:36;99803.08;;;21.28;49.01
65872;BME280;52653;50.080;21.992;2022-10-16T12:55:17;99803.03;;;21.33;48.64
65872;BME280;52653;50.080;21.992;2022-10-16T12:58:08;99806.50;;;21.36;48.71
65872;BME280;52653;50.080;21.992;2022-10-16T13:00:45;99811.80;;;21.37;48.59
65872;BME280;52653;50.080;21.992;2022-10-16T13:06:22;99816.72;;;21.34;48.11
65872;BME280;52653;50.080;21.992;2022-10-16T13:09:15;99817.30;;;21.29;47.97
65872;BME280;52653;50.080;21.992;2022-10-16T13:12:01;99820.59;;;21.27;48.23
65872;BME280;52653;50.080;21.992;2022-10-16T13:14:57;99822.77;;;21.21;47.95
65872;BME280;52653;50.080;21.992;2022-10-16T13:17:39;99825.51;;;21.11;47.57
65872;BME280;52653;50.080;21.992;2022-10-16T13:20:21;99821.95;;;21.02;47.40
65872;BME280;52653;50.080;21.992;2022-10-16T13:23:00;99826.20;;;20.94;47.72
65872;BME280;52653;50.080;21.992;2022-10-16T13:25:44;99827.56;;;20.87;48.02
65872;BME280;52653;50.080;21.992;2022-10-16T13:28:22;99822.77;;;20.87;48.62
65872;BME280;52653;50.080;21.992;2022-10-16T13:31:00;99822.33;;;20.84;48.21
65872;BME280;52653;50.080;21.992;2022-10-16T13:33:37;99820.95;;;20.78;48.61
65872;BME280;52653;50.080;21.992;2022-10-16T13:36:20;99821.27;;;20.75;48.54
65872;BME280;52653;50.080;21.992;2022-10-16T13:39:09;99823.70;;;20.72;48.98